MSC Opera — H3FV — position and weather

sailwx.info

Track history (hours):
 
Tides and Currents Weather Stations Pressure Air Temp Water Temp Dewpoint Dewpoint Depression Visibility Wind Speed Wind Dir Waves Ship Positions

MSC Opera

Operator: Mediterranean Shipping Company

Last reported at 2019-Sep-15 23:40 UTC. Time now 2019-Sep-17 08:52 UTC.
Position N 43°53' E 014°17'.

Length 275 m; draft 6.8 m.

Type: Passenger vessel. MMSI: 357627000.

Date/timePositionNaut miles runAvg speedWind from/ knotsBaromVisibWave heightAir tempDewpointWater temp
2019-Sep-15 23:40N 43°53' E 014°17'320.6
2019-Sep-15 23:30N 43°56' E 014°14'1020.6
2019-Sep-15 23:00N 44°03' E 014°04'1020.7
2019-Sep-15 22:30N 44°12' E 013°56'1120.8
2019-Sep-15 21:57N 44°22' E 013°48'1320.7
2019-Sep-15 21:20N 44°32' E 013°38'720.5
2019-Sep-15 21:00N 44°38' E 013°33'1020.6
2019-Sep-15 20:30N 44°47' E 013°25'1020.2
2019-Sep-15 20:00N 44°55' E 013°17'1020.1
2019-Sep-15 19:31N 45°02' E 013°06'1019.9
2019-Sep-15 19:01N 45°08' E 012°56'1019.9
2019-Sep-15 18:31N 45°15' E 012°45'918.8
2019-Sep-15 18:00N 45°20' E 012°34'714.9
2019-Sep-15 17:30N 45°25' E 012°26'3 5.9
2019-Sep-15 17:01N 45°25' E 012°22'2 4.8
2019-Sep-15 16:30N 45°26' E 012°19'0 0.7
2019-Sep-15 15:58N 45°26' E 012°18'0 0.0
2019-Sep-15 15:28N 45°26' E 012°18'0 0.0
2019-Sep-15 14:58N 45°26' E 012°18'0 0.0
2019-Sep-15 14:27N 45°26' E 012°18'0 0.0
2019-Sep-15 13:57N 45°26' E 012°18'0 0.0
2019-Sep-15 13:27N 45°26' E 012°18'0 0.0
2019-Sep-15 12:57N 45°26' E 012°18'0 0.0
2019-Sep-15 12:27N 45°26' E 012°18'0 0.0
2019-Sep-15 11:56N 45°26' E 012°18'0 0.0
2019-Sep-15 11:26N 45°26' E 012°18'0 0.0
2019-Sep-15 10:56N 45°26' E 012°18'0 0.0
2019-Sep-15 10:26N 45°26' E 012°18'0 0.0
2019-Sep-15 09:58N 45°26' E 012°18'0 0.0
2019-Sep-15 09:28N 45°26' E 012°18'0 0.0
2019-Sep-15 08:55N 45°26' E 012°18'0 0.0
2019-Sep-15 08:25N 45°26' E 012°18'0 0.0
2019-Sep-15 08:00N 45°26' E 012°18'0 0.0
2019-Sep-15 07:24N 45°26' E 012°18'0 0.0
2019-Sep-15 07:00N 45°26' E 012°18'0 0.0
2019-Sep-15 06:24N 45°26' E 012°18'0 0.0
2019-Sep-15 06:00N 45°26' E 012°18'0 0.2
2019-Sep-15 05:31N 45°26' E 012°18'2 3.0
2019-Sep-15 05:00N 45°26' E 012°20'2 4.3
2019-Sep-15 04:30N 45°26' E 012°23'4 8.4
2019-Sep-15 04:00N 45°24' E 012°29'815.4
2019-Sep-15 03:31N 45°20' E 012°38'918.7
2019-Sep-15 03:00N 45°15' E 012°49'1019.1
2019-Sep-15 02:31N 45°08' E 012°58'1019.2
2019-Sep-15 02:00N 45°02' E 013°09'919.0
2019-Sep-15 01:31N 44°57' E 013°21'1019.9
2019-Sep-15 01:01N 44°49' E 013°28'1019.9
2019-Sep-15 00:30N 44°41' E 013°36'1019.8
2019-Sep-15 00:00N 44°32' E 013°44'1019.6
2019-Sep-14 23:30N 44°24' E 013°52'1019.9
2019-Sep-14 23:00N 44°16' E 013°60'1620.4
2019-Sep-14 22:13N 44°03' E 014°13'  
2019-Sep-12 00:06N 37°12' E 024°50'218.2
2019-Sep-12 00:00N 37°13' E 024°51'1118.4
2019-Sep-11 23:24N 37°18' E 025°03'717.4
2019-Sep-11 23:00N 37°24' E 025°09'815.3
2019-Sep-11 22:30N 37°28' E 025°17'2 3.9
2019-Sep-11 21:59N 37°28' E 025°19'0 0.0
2019-Sep-11 21:29N 37°28' E 025°19'0 0.0
2019-Sep-11 20:59N 37°28' E 025°19'0 0.0
2019-Sep-11 20:29N 37°28' E 025°19'0 0.0
2019-Sep-11 19:58N 37°28' E 025°19'0 0.0
2019-Sep-11 19:28N 37°28' E 025°19'0 0.0
2019-Sep-11 18:58N 37°28' E 025°19'0 0.0
2019-Sep-11 18:28N 37°28' E 025°19'0 0.0
2019-Sep-11 17:58N 37°28' E 025°19'0 0.0
2019-Sep-11 17:27N 37°28' E 025°19'0 0.0
2019-Sep-11 17:00N 37°28' E 025°19'0 0.0
2019-Sep-11 16:30N 37°28' E 025°19'0 0.0
2019-Sep-11 16:00N 37°28' E 025°19'0 0.0
2019-Sep-11 15:30N 37°28' E 025°19'0 0.0
2019-Sep-11 14:59N 37°28' E 025°19'0 0.0
2019-Sep-11 14:29N 37°28' E 025°19'0 0.0
2019-Sep-11 13:59N 37°28' E 025°19'0 0.0
2019-Sep-11 13:29N 37°28' E 025°19'0 0.0
2019-Sep-11 12:58N 37°28' E 025°19'0 0.0
2019-Sep-11 12:28N 37°28' E 025°19'0 0.0
2019-Sep-11 11:58N 37°28' E 025°19'0 0.0
2019-Sep-11 11:28N 37°28' E 025°19'0 0.0
2019-Sep-11 10:58N 37°28' E 025°19'0 0.0
2019-Sep-11 10:30N 37°28' E 025°19'0 0.0
2019-Sep-11 10:00N 37°28' E 025°19'0 0.0
2019-Sep-11 09:30N 37°28' E 025°19'0 0.0
2019-Sep-11 09:00N 37°28' E 025°19'0 0.0
2019-Sep-11 08:29N 37°28' E 025°19'0 0.0
2019-Sep-11 07:56N 37°28' E 025°19'0 0.0
2019-Sep-11 07:29N 37°28' E 025°19'0 0.0
2019-Sep-11 06:59N 37°28' E 025°19'0 0.0
2019-Sep-11 06:26N 37°28' E 025°19'0 0.0
2019-Sep-11 05:58N 37°28' E 025°19'0 0.0
2019-Sep-11 05:25N 37°28' E 025°19'0 0.0
2019-Sep-11 04:58N 37°28' E 025°19'0 0.0
2019-Sep-11 04:30N 37°28' E 025°19'0 0.3
2019-Sep-11 04:00N 37°28' E 025°19'3 5.6
2019-Sep-11 03:30N 37°28' E 025°16'612.4
2019-Sep-11 03:00N 37°25' E 025°09'815.4
2019-Sep-11 02:28N 37°18' E 025°04'816.3
2019-Sep-11 02:00N 37°15' E 024°55'  
2019-Sep-08 21:14N 44°05' E 014°02'720.9
2019-Sep-08 20:54N 44°10' E 013°56'1120.9
2019-Sep-08 20:22N 44°20' E 013°48'821.2
2019-Sep-08 20:00N 44°26' E 013°42'1020.9
2019-Sep-08 19:30N 44°35' E 013°35'1020.3
2019-Sep-08 19:00N 44°44' E 013°27'1020.3
2019-Sep-08 18:31N 44°52' E 013°20'1020.5
2019-Sep-08 18:01N 44°60' E 013°10'1020.4
2019-Sep-08 17:30N 45°07' E 012°59'1020.5
2019-Sep-08 17:00N 45°13' E 012°48'1020.0
2019-Sep-08 16:30N 45°19' E 012°37'816.2
2019-Sep-08 16:00N 45°24' E 012°28'4 7.5
2019-Sep-08 15:31N 45°26' E 012°23'2 4.5
2019-Sep-08 15:01N 45°26' E 012°20'1 1.6
2019-Sep-08 14:19N 45°26' E 012°18'0 0.0
2019-Sep-08 13:55N 45°26' E 012°18'0 0.0
2019-Sep-08 13:25N 45°26' E 012°18'0 0.0
2019-Sep-08 12:54N 45°26' E 012°18'0 0.0
2019-Sep-08 12:30N 45°26' E 012°18'0 0.0
2019-Sep-08 12:00N 45°26' E 012°18'0 0.0
2019-Sep-08 11:30N 45°26' E 012°18'0 0.0
2019-Sep-08 11:00N 45°26' E 012°18'0 0.0
2019-Sep-08 10:29N 45°26' E 012°18'0 0.0
2019-Sep-08 09:53N 45°26' E 012°18'0 0.0
2019-Sep-08 09:26N 45°26' E 012°18'0 0.0
2019-Sep-08 08:59N 45°26' E 012°18'0 0.0
2019-Sep-08 08:29N 45°26' E 012°18'0 0.0
2019-Sep-08 07:58N 45°26' E 012°18'0 0.0
2019-Sep-08 07:28N 45°26' E 012°18'0 0.0
2019-Sep-08 06:58N 45°26' E 012°18'0 0.0
2019-Sep-08 06:28N 45°26' E 012°18'0 0.0
2019-Sep-08 05:57N 45°26' E 012°18'0 0.1
2019-Sep-08 05:30N 45°26' E 012°18'1 2.5
2019-Sep-08 05:00N 45°26' E 012°20'2 4.5
2019-Sep-08 04:30N 45°26' E 012°23'4 8.0
2019-Sep-08 04:01N 45°24' E 012°28'713.8
2019-Sep-08 03:30N 45°21' E 012°36'917.1
2019-Sep-08 03:00N 45°16' E 012°47'917.8
2019-Sep-08 02:30N 45°10' E 012°56'918.1
2019-Sep-08 02:00N 45°04' E 013°06'918.1
2019-Sep-08 01:30N 44°59' E 013°16'917.6
2019-Sep-08 01:00N 44°53' E 013°26'918.1
2019-Sep-08 00:30N 44°46' E 013°33'918.9
2019-Sep-08 00:00N 44°38' E 013°40'1019.5
2019-Sep-07 23:30N 44°29' E 013°47'1019.9
2019-Sep-07 23:00N 44°21' E 013°55'1120.9
2019-Sep-07 22:30N 44°12' E 014°03'38010.2
2019-Sep-06 09:19N 39°38' E 019°56'  
Track history (hours):
 
Tides and Currents Weather Stations Pressure Air Temp Water Temp Dewpoint Dewpoint Depression Visibility Wind Speed Wind Dir Waves Ship Positions

MSC Opera

Operator: Mediterranean Shipping Company

Last reported at 2019-Sep-15 23:40 UTC. Time now 2019-Sep-17 08:52 UTC.
Position N 43°53' E 014°17'.

Length 275 m; draft 6.8 m.

Type: Passenger vessel. MMSI: 357627000.

Date/timePositionNaut miles runAvg speedWind from/ knotsBaromVisibWave heightAir tempDewpointWater temp
2019-Sep-15 23:40N 43°53' E 014°17'320.6
2019-Sep-15 23:30N 43°56' E 014°14'1020.6
2019-Sep-15 23:00N 44°03' E 014°04'1020.7
2019-Sep-15 22:30N 44°12' E 013°56'1120.8
2019-Sep-15 21:57N 44°22' E 013°48'1320.7
2019-Sep-15 21:20N 44°32' E 013°38'720.5
2019-Sep-15 21:00N 44°38' E 013°33'1020.6
2019-Sep-15 20:30N 44°47' E 013°25'1020.2
2019-Sep-15 20:00N 44°55' E 013°17'1020.1
2019-Sep-15 19:31N 45°02' E 013°06'1019.9
2019-Sep-15 19:01N 45°08' E 012°56'1019.9
2019-Sep-15 18:31N 45°15' E 012°45'918.8
2019-Sep-15 18:00N 45°20' E 012°34'714.9
2019-Sep-15 17:30N 45°25' E 012°26'3 5.9
2019-Sep-15 17:01N 45°25' E 012°22'2 4.8
2019-Sep-15 16:30N 45°26' E 012°19'0 0.7
2019-Sep-15 15:58N 45°26' E 012°18'0 0.0
2019-Sep-15 15:28N 45°26' E 012°18'0 0.0
2019-Sep-15 14:58N 45°26' E 012°18'0 0.0
2019-Sep-15 14:27N 45°26' E 012°18'0 0.0
2019-Sep-15 13:57N 45°26' E 012°18'0 0.0
2019-Sep-15 13:27N 45°26' E 012°18'0 0.0
2019-Sep-15 12:57N 45°26' E 012°18'0 0.0
2019-Sep-15 12:27N 45°26' E 012°18'0 0.0
2019-Sep-15 11:56N 45°26' E 012°18'0 0.0
2019-Sep-15 11:26N 45°26' E 012°18'0 0.0
2019-Sep-15 10:56N 45°26' E 012°18'0 0.0
2019-Sep-15 10:26N 45°26' E 012°18'0 0.0
2019-Sep-15 09:58N 45°26' E 012°18'0 0.0
2019-Sep-15 09:28N 45°26' E 012°18'0 0.0
2019-Sep-15 08:55N 45°26' E 012°18'0 0.0
2019-Sep-15 08:25N 45°26' E 012°18'0 0.0
2019-Sep-15 08:00N 45°26' E 012°18'0 0.0
2019-Sep-15 07:24N 45°26' E 012°18'0 0.0
2019-Sep-15 07:00N 45°26' E 012°18'0 0.0
2019-Sep-15 06:24N 45°26' E 012°18'0 0.0
2019-Sep-15 06:00N 45°26' E 012°18'0 0.2
2019-Sep-15 05:31N 45°26' E 012°18'2 3.0
2019-Sep-15 05:00N 45°26' E 012°20'2 4.3
2019-Sep-15 04:30N 45°26' E 012°23'4 8.4
2019-Sep-15 04:00N 45°24' E 012°29'815.4
2019-Sep-15 03:31N 45°20' E 012°38'918.7
2019-Sep-15 03:00N 45°15' E 012°49'1019.1
2019-Sep-15 02:31N 45°08' E 012°58'1019.2
2019-Sep-15 02:00N 45°02' E 013°09'919.0
2019-Sep-15 01:31N 44°57' E 013°21'1019.9
2019-Sep-15 01:01N 44°49' E 013°28'1019.9
2019-Sep-15 00:30N 44°41' E 013°36'1019.8
2019-Sep-15 00:00N 44°32' E 013°44'1019.6
2019-Sep-14 23:30N 44°24' E 013°52'1019.9
2019-Sep-14 23:00N 44°16' E 013°60'1620.4
2019-Sep-14 22:13N 44°03' E 014°13'  
2019-Sep-12 00:06N 37°12' E 024°50'218.2
2019-Sep-12 00:00N 37°13' E 024°51'1118.4
2019-Sep-11 23:24N 37°18' E 025°03'717.4
2019-Sep-11 23:00N 37°24' E 025°09'815.3
2019-Sep-11 22:30N 37°28' E 025°17'2 3.9
2019-Sep-11 21:59N 37°28' E 025°19'0 0.0
2019-Sep-11 21:29N 37°28' E 025°19'0 0.0
2019-Sep-11 20:59N 37°28' E 025°19'0 0.0
2019-Sep-11 20:29N 37°28' E 025°19'0 0.0
2019-Sep-11 19:58N 37°28' E 025°19'0 0.0
2019-Sep-11 19:28N 37°28' E 025°19'0 0.0
2019-Sep-11 18:58N 37°28' E 025°19'0 0.0
2019-Sep-11 18:28N 37°28' E 025°19'0 0.0
2019-Sep-11 17:58N 37°28' E 025°19'0 0.0
2019-Sep-11 17:27N 37°28' E 025°19'0 0.0
2019-Sep-11 17:00N 37°28' E 025°19'0 0.0
2019-Sep-11 16:30N 37°28' E 025°19'0 0.0
2019-Sep-11 16:00N 37°28' E 025°19'0 0.0
2019-Sep-11 15:30N 37°28' E 025°19'0 0.0
2019-Sep-11 14:59N 37°28' E 025°19'0 0.0
2019-Sep-11 14:29N 37°28' E 025°19'0 0.0
2019-Sep-11 13:59N 37°28' E 025°19'0 0.0
2019-Sep-11 13:29N 37°28' E 025°19'0 0.0
2019-Sep-11 12:58N 37°28' E 025°19'0 0.0
2019-Sep-11 12:28N 37°28' E 025°19'0 0.0
2019-Sep-11 11:58N 37°28' E 025°19'0 0.0
2019-Sep-11 11:28N 37°28' E 025°19'0 0.0
2019-Sep-11 10:58N 37°28' E 025°19'0 0.0
2019-Sep-11 10:30N 37°28' E 025°19'0 0.0
2019-Sep-11 10:00N 37°28' E 025°19'0 0.0
2019-Sep-11 09:30N 37°28' E 025°19'0 0.0
2019-Sep-11 09:00N 37°28' E 025°19'0 0.0
2019-Sep-11 08:29N 37°28' E 025°19'0 0.0
2019-Sep-11 07:56N 37°28' E 025°19'0 0.0
2019-Sep-11 07:29N 37°28' E 025°19'0 0.0
2019-Sep-11 06:59N 37°28' E 025°19'0 0.0
2019-Sep-11 06:26N 37°28' E 025°19'0 0.0
2019-Sep-11 05:58N 37°28' E 025°19'0 0.0
2019-Sep-11 05:25N 37°28' E 025°19'0 0.0
2019-Sep-11 04:58N 37°28' E 025°19'0 0.0
2019-Sep-11 04:30N 37°28' E 025°19'0 0.3
2019-Sep-11 04:00N 37°28' E 025°19'3 5.6
2019-Sep-11 03:30N 37°28' E 025°16'612.4
2019-Sep-11 03:00N 37°25' E 025°09'815.4
2019-Sep-11 02:28N 37°18' E 025°04'816.3
2019-Sep-11 02:00N 37°15' E 024°55'  
2019-Sep-08 21:14N 44°05' E 014°02'720.9
2019-Sep-08 20:54N 44°10' E 013°56'1120.9
2019-Sep-08 20:22N 44°20' E 013°48'821.2
2019-Sep-08 20:00N 44°26' E 013°42'1020.9
2019-Sep-08 19:30N 44°35' E 013°35'1020.3
2019-Sep-08 19:00N 44°44' E 013°27'1020.3
2019-Sep-08 18:31N 44°52' E 013°20'1020.5
2019-Sep-08 18:01N 44°60' E 013°10'1020.4
2019-Sep-08 17:30N 45°07' E 012°59'1020.5
2019-Sep-08 17:00N 45°13' E 012°48'1020.0
2019-Sep-08 16:30N 45°19' E 012°37'816.2
2019-Sep-08 16:00N 45°24' E 012°28'4 7.5
2019-Sep-08 15:31N 45°26' E 012°23'2 4.5
2019-Sep-08 15:01N 45°26' E 012°20'1 1.6
2019-Sep-08 14:19N 45°26' E 012°18'0 0.0
2019-Sep-08 13:55N 45°26' E 012°18'0 0.0
2019-Sep-08 13:25N 45°26' E 012°18'0 0.0
2019-Sep-08 12:54N 45°26' E 012°18'0 0.0
2019-Sep-08 12:30N 45°26' E 012°18'0 0.0
2019-Sep-08 12:00N 45°26' E 012°18'0 0.0
2019-Sep-08 11:30N 45°26' E 012°18'0 0.0
2019-Sep-08 11:00N 45°26' E 012°18'0 0.0
2019-Sep-08 10:29N 45°26' E 012°18'0 0.0
2019-Sep-08 09:53N 45°26' E 012°18'0 0.0
2019-Sep-08 09:26N 45°26' E 012°18'0 0.0
2019-Sep-08 08:59N 45°26' E 012°18'0 0.0
2019-Sep-08 08:29N 45°26' E 012°18'0 0.0
2019-Sep-08 07:58N 45°26' E 012°18'0 0.0
2019-Sep-08 07:28N 45°26' E 012°18'0 0.0
2019-Sep-08 06:58N 45°26' E 012°18'0 0.0
2019-Sep-08 06:28N 45°26' E 012°18'0 0.0
2019-Sep-08 05:57N 45°26' E 012°18'0 0.1
2019-Sep-08 05:30N 45°26' E 012°18'1 2.5
2019-Sep-08 05:00N 45°26' E 012°20'2 4.5
2019-Sep-08 04:30N 45°26' E 012°23'4 8.0
2019-Sep-08 04:01N 45°24' E 012°28'713.8
2019-Sep-08 03:30N 45°21' E 012°36'917.1
2019-Sep-08 03:00N 45°16' E 012°47'917.8
2019-Sep-08 02:30N 45°10' E 012°56'918.1
2019-Sep-08 02:00N 45°04' E 013°06'918.1
2019-Sep-08 01:30N 44°59' E 013°16'917.6
2019-Sep-08 01:00N 44°53' E 013°26'918.1
2019-Sep-08 00:30N 44°46' E 013°33'918.9
2019-Sep-08 00:00N 44°38' E 013°40'1019.5
2019-Sep-07 23:30N 44°29' E 013°47'1019.9
2019-Sep-07 23:00N 44°21' E 013°55'1120.9
2019-Sep-07 22:30N 44°12' E 014°03'38010.2
2019-Sep-06 09:19N 39°38' E 019°56'  

Dump ship's entire track history